Time;durP1;ratioP1;P1;durP2;ratioP2;P2;SDS_P1;SDS_P2;PMS_P1;PMS_P2;Temp;Humidity;BMP_temperature;BMP_pressure;BME280_temperature;BME280_humidity;BME280_pressure;Samples;Min_cycle;Max_cycle;Signal;HPM_P1;HPM_P2
2023/09/19 00:00:19;;;;;;;27.50;15.10;;;;;;;16.57;89.39;101280.51;106003;1257;74965;-88
2023/09/19 00:02:59;;;;;;;30.30;15.70;;;;;;;16.44;90.30;101284.19;105932;1260;67611;-87
2023/09/19 00:05:28;;;;;;;31.40;15.80;;;;;;;16.44;90.26;101283.91;106001;1262;71872;-87
2023/09/19 00:08:00;;;;;;;17.20;10.10;;;;;;;16.45;89.95;101282.34;105962;1260;61316;-84
2023/09/19 00:10:30;;;;;;;18.10;10.20;;;;;;;16.40;89.94;101281.77;106152;1259;61415;-88
2023/09/19 00:13:05;;;;;;;23.20;12.00;;;;;;;16.28;90.77;101283.09;105924;1259;73551;-84
2023/09/19 00:15:46;;;;;;;20.40;11.00;;;;;;;16.29;90.31;101283.90;105933;1262;67436;-87
2023/09/19 00:18:15;;;;;;;20.20;11.20;;;;;;;16.32;89.56;101285.95;106077;1260;72667;-84
2023/09/19 00:20:42;;;;;;;20.40;10.80;;;;;;;16.33;89.46;101286.01;106078;1259;61288;-87
2023/09/19 00:23:09;;;;;;;21.40;11.10;;;;;;;16.32;89.72;101281.64;106064;1261;60076;-88
2023/09/19 00:25:37;;;;;;;20.20;11.00;;;;;;;16.38;89.32;101284.49;106115;1262;74461;-87
2023/09/19 00:28:04;;;;;;;26.30;13.40;;;;;;;16.32;89.19;101283.64;106052;1262;67249;-88
2023/09/19 00:30:32;;;;;;;54.80;24.60;;;;;;;16.30;89.15;101281.57;106237;1259;72776;-87
2023/09/19 00:33:01;;;;;;;38.00;17.30;;;;;;;16.26;89.28;101292.55;106075;1259;61415;-83
2023/09/19 00:35:28;;;;;;;20.90;11.10;;;;;;;16.27;89.49;101293.52;105961;1258;61215;-85
2023/09/19 00:37:55;;;;;;;17.30;9.20;;;;;;;16.34;89.36;101293.99;106062;1258;74480;-84
2023/09/19 00:40:22;;;;;;;25.40;12.90;;;;;;;16.27;90.19;101293.91;106054;1262;67233;-84
2023/09/19 00:42:50;;;;;;;39.50;17.90;;;;;;;16.29;90.14;101291.56;105980;1261;72478;-84
2023/09/19 00:45:17;;;;;;;35.30;16.50;;;;;;;16.26;89.04;101291.00;105973;1260;61281;-88
2023/09/19 00:47:51;;;;;;;40.00;18.90;;;;;;;16.18;89.06;101291.02;105934;1257;61264;-87
2023/09/19 00:50:19;;;;;;;38.50;18.60;;;;;;;16.15;89.78;101295.58;106001;1260;74472;-84
2023/09/19 00:52:47;;;;;;;24.30;13.10;;;;;;;16.19;90.00;101300.31;106054;1260;67928;-87
2023/09/19 00:55:15;;;;;;;33.90;17.90;;;;;;;16.18;90.59;101295.09;106140;1260;71554;-83
2023/09/19 00:57:43;;;;;;;37.00;18.20;;;;;;;16.16;89.77;101289.81;106056;1262;61235;-87
2023/09/19 01:00:15;;;;;;;32.10;16.40;;;;;;;16.20;89.21;101287.23;105946;1260;61328;-83
2023/09/19 01:02:43;;;;;;;21.10;11.70;;;;;;;16.20;89.80;101291.25;106046;1259;74514;-88
2023/09/19 01:05:10;;;;;;;20.50;11.00;;;;;;;16.21;89.85;101284.23;106152;1262;68739;-85
2023/09/19 01:07:41;;;;;;;19.30;10.60;;;;;;;16.23;89.99;101286.08;105972;1257;73165;-88
2023/09/19 01:10:09;;;;;;;18.10;10.00;;;;;;;16.33;89.73;101286.16;105894;1262;61234;-83
2023/09/19 01:12:59;;;;;;;16.20;9.30;;;;;;;16.34;89.90;101289.94;106048;1260;61159;-88
2023/09/19 01:15:40;;;;;;;20.50;9.90;;;;;;;16.26;90.80;101284.84;106169;1260;73245;-86
2023/09/19 01:18:23;;;;;;;16.40;10.10;;;;;;;16.21;91.33;101288.48;105892;1260;68841;-84
2023/09/19 01:21:06;;;;;;;14.20;8.90;;;;;;;16.32;90.82;101288.06;105958;1259;72444;-84
2023/09/19 01:23:47;;;;;;;14.10;9.40;;;;;;;16.34;90.89;101287.42;105956;1259;61251;-83
2023/09/19 01:26:52;;;;;;;21.30;11.40;;;;;;;16.46;90.08;101281.57;106113;1260;61200;-87
2023/09/19 01:29:36;;;;;;;15.90;9.30;;;;;;;16.40;89.85;101286.40;106033;1258;73242;-87
2023/09/19 01:32:04;;;;;;;23.00;12.20;;;;;;;16.45;89.84;101284.12;106037;1259;68725;-88
2023/09/19 01:34:53;;;;;;;20.20;11.50;;;;;;;16.45;89.07;101283.41;106184;1262;72681;-84
2023/09/19 01:37:24;;;;;;;19.50;11.70;;;;;;;16.38;88.82;101283.16;106219;1259;61266;-84
2023/09/19 01:39:56;;;;;;;17.20;9.70;;;;;;;16.26;89.18;101284.01;105966;1259;61266;-83
2023/09/19 01:42:40;;;;;;;17.60;9.90;;;;;;;16.27;89.19;101286.47;105945;1259;74316;-87
2023/09/19 01:45:23;;;;;;;17.60;10.80;;;;;;;16.40;88.37;101290.42;106007;1265;67307;-87
2023/09/19 01:47:53;;;;;;;17.10;9.90;;;;;;;16.39;88.37;101293.25;106096;1260;72445;-88
2023/09/19 01:50:43;;;;;;;18.20;11.00;;;;;;;16.44;87.80;101293.30;106170;1258;61352;-87
2023/09/19 01:53:15;;;;;;;21.60;10.30;;;;;;;16.33;88.12;101291.13;106171;1262;61128;-88
2023/09/19 01:55:43;;;;;;;19.20;10.40;;;;;;;16.16;88.61;101287.89;106081;1261;74514;-83
2023/09/19 01:58:49;;;;;;;16.70;10.00;;;;;;;16.29;87.37;101290.23;106386;1262;67486;-87
2023/09/19 02:01:19;;;;;;;17.30;10.20;;;;;;;16.34;85.73;101281.73;105997;1264;72694;-88
2023/09/19 02:03:47;;;;;;;19.60;11.40;;;;;;;16.27;85.86;101280.06;106201;1257;61344;-88
2023/09/19 02:06:15;;;;;;;19.10;10.90;;;;;;;16.25;86.30;101278.94;106117;1262;61176;-87
2023/09/19 02:08:42;;;;;;;21.60;10.10;;;;;;;16.17;87.19;101279.29;106125;1258;74740;-84
2023/09/19 02:11:09;;;;;;;17.20;9.80;;;;;;;16.02;88.54;101280.02;105953;1262;68412;-83
2023/09/19 02:13:36;;;;;;;14.80;9.50;;;;;;;16.08;88.64;101281.48;105972;1262;72433;-86
2023/09/19 02:16:04;;;;;;;16.00;9.70;;;;;;;16.05;89.06;101283.30;106044;1260;61745;-88
2023/09/19 02:18:31;;;;;;;16.60;10.10;;;;;;;16.09;89.13;101281.91;106022;1260;61295;-85
2023/09/19 02:20:58;;;;;;;17.30;9.50;;;;;;;16.19;88.62;101281.23;106067;1262;73700;-87
2023/09/19 02:23:25;;;;;;;15.40;8.90;;;;;;;16.18;89.03;101277.77;106135;1256;68740;-83
2023/09/19 02:25:57;;;;;;;15.80;9.30;;;;;;;16.21;89.39;101277.29;106035;1260;71242;-87
2023/09/19 02:28:29;;;;;;;15.30;9.50;;;;;;;16.26;89.32;101276.73;105965;1262;61274;-83
2023/09/19 02:30:57;;;;;;;13.50;9.10;;;;;;;16.29;89.10;101269.06;106189;1262;61232;-88
2023/09/19 02:33:24;;;;;;;15.00;8.30;;;;;;;16.35;88.39;101271.30;106067;1261;74516;-84
2023/09/19 02:36:00;;;;;;;16.20;9.30;;;;;;;16.28;89.02;101267.58;106157;1262;68512;-88
2023/09/19 02:38:28;;;;;;;15.50;9.10;;;;;;;16.32;89.03;101265.44;106077;1259;73185;-88
2023/09/19 02:40:55;;;;;;;17.80;8.80;;;;;;;16.29;89.17;101269.45;106154;1262;61660;-88
2023/09/19 02:43:23;;;;;;;13.10;8.40;;;;;;;16.35;88.80;101266.02;106036;1257;61164;-84
2023/09/19 02:45:50;;;;;;;13.40;8.50;;;;;;;16.24;89.28;101265.27;106081;1262;74656;-84
2023/09/19 02:48:18;;;;;;;15.70;8.90;;;;;;;16.24;88.67;101261.30;106226;1263;69180;-88
2023/09/19 02:50:46;;;;;;;15.30;8.80;;;;;;;16.20;88.45;101259.76;105956;1260;72322;-87
2023/09/19 02:53:13;;;;;;;13.30;7.80;;;;;;;16.22;87.69;101263.77;106088;1258;61352;-83
2023/09/19 02:55:40;;;;;;;15.70;8.60;;;;;;;16.19;87.40;101266.02;105947;1258;61349;-88
2023/09/19 02:58:14;;;;;;;17.80;9.70;;;;;;;16.14;87.11;101261.89;106080;1262;73863;-87
2023/09/19 03:00:42;;;;;;;19.90;9.40;;;;;;;15.91;87.92;101267.27;106062;1259;68889;-87
2023/09/19 03:03:09;;;;;;;13.80;8.50;;;;;;;16.00;86.83;101264.61;106186;1261;71757;-87
2023/09/19 03:05:38;;;;;;;13.00;8.30;;;;;;;16.03;86.12;101263.85;106280;1257;61368;-84
2023/09/19 03:08:06;;;;;;;13.70;8.50;;;;;;;15.98;85.85;101262.60;105935;1262;61193;-83
2023/09/19 03:10:33;;;;;;;14.00;8.60;;;;;;;15.90;86.04;101259.79;106092;1261;74834;-83
2023/09/19 03:13:01;;;;;;;13.80;9.10;;;;;;;15.82;86.25;101262.64;105992;1262;67353;-88
2023/09/19 03:15:29;;;;;;;14.50;8.50;;;;;;;15.73;86.56;101261.09;105993;1262;72749;-88
2023/09/19 03:17:57;;;;;;;12.90;9.10;;;;;;;15.59;87.56;101261.75;105957;1259;60924;-84
2023/09/19 03:20:27;;;;;;;13.80;8.20;;;;;;;15.55;87.90;101264.04;106163;1257;61343;-87
2023/09/19 03:22:54;;;;;;;13.90;8.60;;;;;;;15.45;88.28;101261.27;106074;1257;74532;-88
2023/09/19 03:25:22;;;;;;;14.70;8.90;;;;;;;15.44;88.38;101261.40;105935;1260;68472;-83
2023/09/19 03:27:50;;;;;;;15.50;8.70;;;;;;;15.36;88.84;101257.58;106219;1262;71545;-87
2023/09/19 03:30:18;;;;;;;16.40;8.70;;;;;;;15.29;89.06;101258.64;105938;1262;61877;-83
2023/09/19 03:32:46;;;;;;;16.30;8.70;;;;;;;15.23;89.35;101257.88;105959;1260;61321;-83
2023/09/19 03:35:14;;;;;;;15.30;9.20;;;;;;;15.26;89.04;101257.41;106300;1258;74428;-84
2023/09/19 03:37:44;;;;;;;17.50;9.20;;;;;;;15.21;89.11;101259.66;105945;1265;68352;-88
2023/09/19 03:40:11;;;;;;;14.80;9.50;;;;;;;15.20;89.15;101258.19;106031;1263;72753;-84
2023/09/19 03:42:39;;;;;;;16.00;9.70;;;;;;;15.17;89.24;101259.38;105988;1259;61676;-87
2023/09/19 03:45:12;;;;;;;14.20;8.90;;;;;;;15.11;89.92;101257.41;105999;1263;61269;-87
2023/09/19 03:47:42;;;;;;;16.00;9.80;;;;;;;15.13;89.68;101258.14;105951;1262;74461;-84
2023/09/19 03:50:10;;;;;;;14.20;9.00;;;;;;;15.14;89.47;101256.15;106168;1262;68497;-84
2023/09/19 03:52:38;;;;;;;14.00;8.60;;;;;;;15.12;89.50;101256.45;106152;1262;71455;-87
2023/09/19 03:55:06;;;;;;;17.10;9.20;;;;;;;15.09;89.42;101259.11;106050;1260;61177;-88
2023/09/19 03:57:36;;;;;;;15.10;9.20;;;;;;;15.02;90.12;101260.29;106285;1263;61150;-83
2023/09/19 04:00:11;;;;;;;16.30;9.70;;;;;;;15.09;90.42;101263.20;106127;1263;74391;-84
2023/09/19 04:02:41;;;;;;;15.60;9.20;;;;;;;15.05;91.66;101267.48;105997;1262;67488;-84
2023/09/19 04:05:10;;;;;;;15.90;8.70;;;;;;;15.02;92.15;101268.43;105908;1261;71570;-85
2023/09/19 04:07:37;;;;;;;15.80;8.70;;;;;;;15.10;92.25;101268.03;105963;1262;61307;-87
2023/09/19 04:10:06;;;;;;;17.70;10.50;;;;;;;15.10;92.70;101266.60;106225;1262;61227;-88
2023/09/19 04:12:33;;;;;;;16.30;10.30;;;;;;;15.22;92.69;101263.02;106111;1261;74650;-87
2023/09/19 04:15:02;;;;;;;16.10;9.40;;;;;;;15.28;92.95;101261.91;106120;1262;68445;-88
2023/09/19 04:17:29;;;;;;;16.80;9.50;;;;;;;15.36;93.26;101265.46;105893;1263;70800;-87
2023/09/19 04:19:57;;;;;;;18.30;10.00;;;;;;;15.43;93.63;101269.30;105997;1259;131523;-84
2023/09/19 04:22:23;;;;;;;19.10;10.70;;;;;;;15.47;94.16;101262.42;106079;1260;61250;-84
2023/09/19 04:24:50;;;;;;;18.50;10.40;;;;;;;15.54;94.74;101260.34;106134;1263;75145;-85
2023/09/19 04:27:18;;;;;;;19.80;11.30;;;;;;;15.67;94.81;101260.34;105931;1263;68467;-87
2023/09/19 04:29:45;;;;;;;23.40;11.10;;;;;;;15.73;95.69;101258.16;106132;1258;70085;-85
2023/09/19 04:32:13;;;;;;;18.60;10.20;;;;;;;15.87;96.28;101253.31;106148;1260;61655;-88
2023/09/19 04:34:40;;;;;;;17.60;10.50;;;;;;;15.99;96.95;101254.38;105916;1264;60173;-88
2023/09/19 04:37:07;;;;;;;18.50;10.80;;;;;;;16.11;97.83;101252.13;106054;1262;74348;-88
2023/09/19 04:39:34;;;;;;;16.50;9.80;;;;;;;16.20;98.80;101247.68;106036;1262;68702;-88
2023/09/19 04:42:01;;;;;;;17.10;10.00;;;;;;;16.30;99.83;101240.54;105878;1262;71627;-85
2023/09/19 06:07:37;;;;;;;9.80;6.20;;;;;;;24.76;63.13;101209.26;106184;1264;71790;-86
2023/09/19 06:10:08;;;;;;;11.80;6.10;;;;;;;25.03;58.91;101211.41;106171;1260;61250;-87
2023/09/19 06:12:43;;;;;;;10.90;6.30;;;;;;;25.44;55.65;101209.28;106161;1258;61273;-88
2023/09/19 06:15:23;;;;;;;8.70;5.70;;;;;;;25.83;52.69;101212.36;106148;1257;65855;-87
2023/09/19 06:17:51;;;;;;;11.80;6.60;;;;;;;26.21;50.92;101209.45;106241;1262;61095;-88
2023/09/19 06:20:19;;;;;;;9.60;5.70;;;;;;;26.50;49.01;101209.83;106114;1257;63219;-88
2023/09/19 06:22:46;;;;;;;7.90;5.60;;;;;;;26.72;47.26;101209.23;106034;1257;61251;-88
2023/09/19 06:25:21;;;;;;;11.30;6.10;;;;;;;27.01;45.88;101211.83;106233;1258;61089;-87
2023/09/19 06:27:52;;;;;;;8.40;5.30;;;;;;;27.29;44.96;101213.05;105889;1258;286565;-88
2023/09/19 06:30:19;;;;;;;7.70;5.30;;;;;;;27.50;44.05;101210.27;106178;1263;61290;-88
2023/09/19 06:32:46;;;;;;;8.50;5.60;;;;;;;27.78;43.19;101210.55;106184;1260;63901;-87
2023/09/19 06:35:14;;;;;;;8.60;5.40;;;;;;;28.05;42.21;101212.54;106217;1257;61280;-87
2023/09/19 06:37:42;;;;;;;8.70;5.40;;;;;;;28.33;41.35;101211.39;106101;1257;59822;-87
2023/09/19 06:40:13;;;;;;;11.40;5.00;;;;;;;28.50;40.82;101217.23;105995;1258;65709;-89
2023/09/19 06:42:45;;;;;;;7.00;4.60;;;;;;;28.72;39.46;101216.11;106331;1259;61267;-87
2023/09/19 06:45:17;;;;;;;7.30;4.80;;;;;;;28.87;38.94;101216.67;105980;1263;62798;-88
2023/09/19 06:47:51;;;;;;;;;;;;;;;29.06;38.48;101213.27;106157;1257;61221;-88
2023/09/19 06:50:25;;;;;;;8.40;4.50;;;;;;;29.33;38.01;101212.61;106283;1257;61302;-87
2023/09/19 06:52:53;;;;;;;8.30;4.60;;;;;;;29.53;36.81;101217.11;106350;1263;64791;-88
2023/09/19 06:55:21;;;;;;;7.50;4.30;;;;;;;29.70;35.55;101217.25;106038;1257;61161;-87
2023/09/19 06:57:48;;;;;;;8.40;4.50;;;;;;;29.87;34.80;101218.33;106182;1257;63920;-88
2023/09/19 07:00:18;;;;;;;5.50;4.20;;;;;;;30.13;33.81;101215.57;106309;1262;61141;-89
2023/09/19 07:02:45;;;;;;;5.30;3.70;;;;;;;30.33;33.09;101218.02;106362;1260;61446;-89
2023/09/19 07:05:12;;;;;;;6.00;3.80;;;;;;;30.50;32.62;101215.59;106068;1262;65744;-88
2023/09/19 07:07:39;;;;;;;5.10;3.90;;;;;;;30.71;31.91;101212.89;106071;1257;61273;-88
2023/09/19 07:10:10;;;;;;;4.80;3.60;;;;;;;30.85;31.57;101210.11;106185;1264;64161;-88
2023/09/19 07:12:37;;;;;;;6.70;4.40;;;;;;;31.08;31.62;101209.27;106211;1258;61333;-88
2023/09/19 07:15:05;;;;;;;6.50;3.40;;;;;;;31.30;30.89;101210.57;106175;1263;61282;-88
2023/09/19 07:17:33;;;;;;;8.40;3.30;;;;;;;31.48;30.31;101208.08;106111;1262;65985;-88
2023/09/19 07:20:00;;;;;;;5.60;3.90;;;;;;;31.63;30.15;101208.23;106242;1257;61304;-89
2023/09/19 07:22:27;;;;;;;4.10;3.40;;;;;;;31.84;29.95;101205.27;106152;1257;64195;-89
2023/09/19 07:24:54;;;;;;;10.30;3.90;;;;;;;32.02;29.82;101204.83;105966;1258;61227;-89
2023/09/19 07:27:21;;;;;;;5.60;3.70;;;;;;;32.14;29.73;101201.16;106192;1257;61596;-88
2023/09/19 07:29:48;;;;;;;5.00;3.30;;;;;;;32.31;29.39;101202.39;106166;1263;66045;-88
2023/09/19 07:32:19;;;;;;;7.60;3.70;;;;;;;32.44;28.74;101203.61;106032;1258;61214;-89
2023/09/19 07:34:46;;;;;;;5.60;3.40;;;;;;;32.44;28.44;101203.70;106109;1262;62749;-88
2023/09/19 07:37:16;;;;;;;6.20;3.80;;;;;;;32.48;28.14;101201.27;106069;1257;61366;-89
2023/09/19 07:39:44;;;;;;;5.10;3.30;;;;;;;32.62;28.16;101195.30;106123;1257;61251;-87
2023/09/19 07:42:17;;;;;;;4.20;3.20;;;;;;;32.86;28.17;101193.91;106163;1257;64595;-88
2023/09/19 07:44:47;;;;;;;6.40;3.70;;;;;;;33.09;28.37;101189.17;106102;1257;61307;-89
2023/09/19 07:47:14;;;;;;;6.40;3.10;;;;;;;33.22;28.09;101190.59;106195;1260;62560;-89
2023/09/19 07:49:42;;;;;;;6.40;3.30;;;;;;;33.25;27.50;101188.47;105932;1257;61235;-90
2023/09/19 07:52:10;;;;;;;5.90;3.00;;;;;;;33.45;27.09;101188.43;106265;1261;61103;-88
2023/09/19 07:54:38;;;;;;;3.80;3.10;;;;;;;33.58;26.73;101185.81;106167;1263;64762;-89
2023/09/19 07:57:05;;;;;;;4.30;3.40;;;;;;;33.66;26.73;101180.89;106212;1258;61206;-88
2023/09/19 07:59:32;;;;;;;5.70;3.70;;;;;;;33.76;27.01;101182.48;106180;1257;65012;-89
2023/09/19 08:02:00;;;;;;;6.10;3.60;;;;;;;33.89;26.82;101179.09;106186;1258;61251;-89
2023/09/19 08:04:28;;;;;;;4.00;2.90;;;;;;;34.06;26.36;101178.90;106659;1257;61308;-89
2023/09/19 08:06:55;;;;;;;5.70;3.20;;;;;;;34.22;25.96;101173.54;106058;1260;65885;-88
2023/09/19 08:09:23;;;;;;;4.20;3.30;;;;;;;34.26;25.85;101168.44;106115;1257;61224;-89
2023/09/19 08:11:53;;;;;;;6.80;3.00;;;;;;;34.29;25.91;101167.58;106077;1261;65201;-88
2023/09/19 08:14:20;;;;;;;4.50;3.50;;;;;;;34.48;25.68;101163.83;106313;1257;61309;-88
2023/09/19 08:16:47;;;;;;;6.10;3.40;;;;;;;34.53;25.25;101161.34;106274;1259;61353;-89
2023/09/19 08:19:14;;;;;;;5.90;3.40;;;;;;;34.53;24.83;101160.94;106043;1260;66153;-89
2023/09/19 08:21:46;;;;;;;6.60;3.50;;;;;;;34.46;24.53;101157.70;106148;1258;61358;-88
2023/09/19 08:24:14;;;;;;;5.20;3.50;;;;;;;34.40;24.55;101153.83;106148;1258;63866;-88
2023/09/19 08:26:42;;;;;;;5.90;3.20;;;;;;;34.43;24.86;101151.28;106139;1257;61152;-87
2023/09/19 08:29:11;;;;;;;8.60;3.50;;;;;;;34.49;24.56;101151.49;106147;1257;61791;-88
2023/09/19 08:31:39;;;;;;;3.90;3.30;;;;;;;34.58;24.57;101148.86;106299;1257;65863;-87
2023/09/19 08:34:06;;;;;;;5.00;3.40;;;;;;;34.71;24.57;101144.88;106161;1263;61333;-89
2023/09/19 08:36:34;;;;;;;5.50;3.70;;;;;;;34.80;23.93;101142.30;106336;1257;64158;-89
2023/09/19 08:39:01;;;;;;;4.90;3.50;;;;;;;34.76;23.84;101139.44;106142;1262;61308;-87
2023/09/19 08:41:28;;;;;;;5.90;3.80;;;;;;;34.71;24.17;101137.73;106182;1257;61240;-89
2023/09/19 08:44:01;;;;;;;4.90;3.40;;;;;;;34.70;23.90;101130.54;106113;1262;65737;-88
2023/09/19 08:46:30;;;;;;;7.80;3.70;;;;;;;34.71;23.36;101124.86;106257;1257;61253;-89
2023/09/19 08:49:07;;;;;;;5.80;3.60;;;;;;;34.65;23.33;101119.27;106013;1257;63878;-87
2023/09/19 08:51:45;;;;;;;7.50;3.50;;;;;;;34.64;23.77;101112.80;106229;1257;61360;-89
2023/09/19 08:54:34;;;;;;;7.70;4.40;;;;;;;34.63;23.86;101113.54;106298;1261;61202;-87
2023/09/19 08:57:07;;;;;;;6.20;3.30;;;;;;;34.69;23.33;101115.88;106222;1257;68600;-89
2023/09/19 08:59:35;;;;;;;11.30;4.00;;;;;;;34.83;23.08;101116.95;106200;1257;61151;-89
2023/09/19 09:02:04;;;;;;;5.80;3.10;;;;;;;34.87;22.60;101114.20;106146;1257;63851;-90
2023/09/19 09:04:31;;;;;;;6.80;4.10;;;;;;;34.88;22.30;101111.02;106155;1258;61269;-88
2023/09/19 09:06:58;;;;;;;5.40;3.10;;;;;;;34.94;22.05;101112.61;106034;1257;61270;-87
2023/09/19 09:09:25;;;;;;;4.90;3.30;;;;;;;34.97;22.05;101113.31;106330;1257;66750;-87
2023/09/19 09:11:52;;;;;;;6.30;3.30;;;;;;;34.94;21.63;101114.31;106328;1257;61337;-87
2023/09/19 09:14:21;;;;;;;6.10;3.10;;;;;;;35.04;21.72;101111.48;106368;1257;64081;-89
2023/09/19 09:16:48;;;;;;;6.70;3.40;;;;;;;35.09;21.60;101113.60;106262;1260;61222;-89
2023/09/19 09:19:23;;;;;;;6.90;3.20;;;;;;;35.02;21.45;101112.00;106223;1257;61334;-87
2023/09/19 09:21:51;;;;;;;5.40;3.40;;;;;;;34.99;21.48;101110.27;106158;1257;66039;-88
2023/09/19 09:24:29;;;;;;;9.40;3.40;;;;;;;35.05;21.67;101110.73;106346;1258;61269;-87
2023/09/19 09:26:59;;;;;;;4.40;3.20;;;;;;;35.05;21.61;101112.51;105970;1257;65093;-87
2023/09/19 09:29:47;;;;;;;4.90;3.80;;;;;;;35.11;21.84;101110.80;106250;1262;61260;-86
2023/09/19 09:32:19;;;;;;;6.20;3.80;;;;;;;35.18;22.41;101110.45;106349;1262;61158;-87
2023/09/19 09:34:53;;;;;;;5.40;3.90;;;;;;;35.28;22.40;101104.90;106245;1257;66113;-87
2023/09/19 09:37:22;;;;;;;6.10;3.80;;;;;;;35.37;22.10;101102.06;106256;1257;61230;-90
2023/09/19 09:39:51;;;;;;;7.10;3.50;;;;;;;35.42;22.05;101102.84;106446;1258;65040;-87
2023/09/19 09:42:40;;;;;;;5.80;3.10;;;;;;;35.42;21.62;101097.71;106888;1257;61146;-89
2023/09/19 09:45:22;;;;;;;6.30;3.70;;;;;;;35.34;21.64;101095.12;106109;1258;61235;-90
2023/09/19 09:47:54;;;;;;;5.10;3.20;;;;;;;35.39;21.87;101089.93;106398;1262;66905;-88
2023/09/19 09:53:25;;;;;;;5.70;3.60;;;;;;;35.34;21.96;101083.93;106171;1257;63775;-88
2023/09/19 09:56:05;;;;;;;4.70;3.50;;;;;;;35.35;21.74;101078.88;106299;1257;61272;-87
2023/09/19 09:58:35;;;;;;;4.80;3.30;;;;;;;35.33;21.66;101070.96;106204;1257;61242;-88
2023/09/19 10:01:08;;;;;;;4.80;3.40;;;;;;;35.27;21.69;101065.89;106242;1262;67021;-86
2023/09/19 10:03:39;;;;;;;6.40;3.40;;;;;;;35.30;21.98;101066.30;106154;1258;61309;-86
2023/09/19 10:11:42;;;;;;;9.80;4.10;;;;;;;35.48;22.09;101047.77;106255;1262;61120;-86
2023/09/19 10:14:16;;;;;;;5.20;3.50;;;;;;;35.51;22.11;101040.08;106221;1257;67122;-87
2023/09/19 10:16:47;;;;;;;4.60;3.50;;;;;;;35.57;21.84;101038.08;106109;1259;61176;-87
2023/09/19 10:19:24;;;;;;;;;;;;;;;35.61;21.22;101039.73;106595;1258;63854;-89
2023/09/19 10:21:54;;;;;;;7.00;3.70;;;;;;;35.59;21.12;101042.84;106119;1262;61474;-87
2023/09/19 10:24:22;;;;;;;7.90;3.40;;;;;;;35.66;21.24;101040.77;106422;1257;61179;-89
2023/09/19 10:26:50;;;;;;;5.30;3.30;;;;;;;35.82;21.31;101030.66;106072;1257;65863;-90
2023/09/19 10:29:18;;;;;;;7.10;3.60;;;;;;;35.84;21.29;101031.42;106174;1262;61080;-87
2023/09/19 10:31:47;;;;;;;5.50;3.40;;;;;;;35.81;20.79;101027.42;106135;1257;62479;-89
2023/09/19 10:34:15;;;;;;;5.60;3.60;;;;;;;35.87;20.87;101020.73;106214;1256;61277;-88
2023/09/19 10:36:44;;;;;;;5.70;3.90;;;;;;;35.93;21.08;101019.69;106206;1257;61131;-87
2023/09/19 10:39:13;;;;;;;6.00;3.20;;;;;;;36.03;20.50;101013.44;106243;1259;66132;-89
2023/09/19 10:41:40;;;;;;;12.10;3.90;;;;;;;36.08;20.61;101007.91;106210;1257;61355;-86
2023/09/19 10:44:09;;;;;;;5.20;3.40;;;;;;;36.09;20.50;101010.32;106226;1262;64277;-89
2023/09/19 10:46:36;;;;;;;6.20;3.60;;;;;;;35.99;20.09;101008.27;106250;1257;61385;-87
2023/09/19 10:49:04;;;;;;;5.10;3.40;;;;;;;35.92;20.43;101003.07;106084;1258;61372;-87
2023/09/19 10:51:39;;;;;;;11.90;3.90;;;;;;;35.90;20.52;100993.13;106030;1262;65990;-86
2023/09/19 10:54:13;;;;;;;5.50;3.70;;;;;;;35.94;20.69;100995.86;106148;1262;61261;-89
2023/09/19 10:57:00;;;;;;;7.20;3.70;;;;;;;36.06;20.35;100992.17;106261;1257;64937;-88
2023/09/19 10:59:34;;;;;;;5.90;3.90;;;;;;;36.18;20.55;100988.60;106664;1260;61363;-89
2023/09/19 11:02:17;;;;;;;6.30;4.20;;;;;;;36.18;20.25;100981.27;106252;1262;61169;-89
2023/09/19 11:04:47;;;;;;;8.00;3.80;;;;;;;36.25;19.95;100971.91;106211;1257;64742;-87
2023/09/19 11:07:15;;;;;;;4.70;4.10;;;;;;;36.30;20.00;100967.81;106220;1257;60361;-90
2023/09/19 11:09:47;;;;;;;6.20;3.80;;;;;;;36.36;19.81;100967.39;106360;1257;63982;-90
2023/09/19 11:14:59;;;;;;;6.20;4.00;;;;;;;36.38;20.03;100964.23;106143;1262;61232;-89
2023/09/19 11:17:32;;;;;;;5.40;4.50;;;;;;;36.37;20.09;100955.66;106109;1263;67124;-86
2023/09/19 11:23:11;;;;;;;6.10;3.70;;;;;;;36.42;19.88;100954.23;106372;1257;65061;-90
2023/09/19 11:25:47;;;;;;;5.90;4.80;;;;;;;36.39;19.53;100954.48;105925;1257;61314;-87
2023/09/19 11:28:38;;;;;;;7.40;4.20;;;;;;;36.01;19.84;100944.03;106190;1256;61234;-89
2023/09/19 11:31:42;;;;;;;5.90;3.90;;;;;;;35.84;20.08;100947.92;106279;1259;66941;-90
2023/09/19 11:34:41;;;;;;;6.70;4.40;;;;;;;35.73;19.88;100944.04;106264;1257;61351;-89
2023/09/19 11:37:14;;;;;;;9.10;4.00;;;;;;;35.62;20.13;100944.55;106109;1258;64955;-88
2023/09/19 11:40:16;;;;;;;4.70;3.80;;;;;;;35.57;20.08;100937.49;106033;1262;61123;-88
2023/09/19 11:42:44;;;;;;;7.60;4.00;;;;;;;35.50;20.00;100933.33;106027;1261;61414;-88
2023/09/19 11:45:45;;;;;;;6.20;4.30;;;;;;;35.42;20.19;100930.44;106421;1257;67073;-88
2023/09/19 11:48:14;;;;;;;7.70;3.90;;;;;;;35.33;19.87;100928.05;106001;1257;61377;-87
2023/09/19 11:50:44;;;;;;;6.20;4.10;;;;;;;35.31;20.06;100921.58;106118;1258;65004;-88
2023/09/19 11:53:16;;;;;;;5.20;4.40;;;;;;;35.41;20.20;100922.52;106225;1261;61263;-88
2023/09/19 11:55:44;;;;;;;4.60;3.90;;;;;;;35.56;20.13;100916.32;106216;1257;61350;-89
2023/09/19 11:58:13;;;;;;;6.10;3.80;;;;;;;35.55;20.34;100917.16;106116;1257;66008;-88
2023/09/19 12:00:43;;;;;;;6.80;3.80;;;;;;;35.57;20.22;100916.48;106222;1262;61343;-86
2023/09/19 12:03:11;;;;;;;6.10;3.90;;;;;;;35.59;19.85;100912.27;106154;1261;65169;-87
2023/09/19 12:05:39;;;;;;;5.50;4.00;;;;;;;35.60;20.05;100907.80;106097;1258;61356;-87
2023/09/19 12:08:08;;;;;;;7.00;3.70;;;;;;;35.64;20.01;100902.52;106226;1260;59815;-87
2023/09/19 12:10:54;;;;;;;5.90;4.20;;;;;;;35.73;20.03;100900.03;106170;1262;65891;-86
2023/09/19 12:13:22;;;;;;;6.50;4.20;;;;;;;35.79;20.15;100896.80;105926;1259;61285;-89
2023/09/19 12:15:49;;;;;;;6.70;4.00;;;;;;;35.95;20.34;100895.20;106096;1256;63737;-87
2023/09/19 12:18:29;;;;;;;5.90;4.10;;;;;;;36.10;20.12;100897.92;106209;1262;61274;-87
2023/09/19 12:20:57;;;;;;;7.60;3.90;;;;;;;36.14;19.72;100890.09;106279;1257;60057;-90
2023/09/19 12:23:27;;;;;;;12.90;4.10;;;;;;;36.09;19.72;100890.62;106203;1262;67679;-87
2023/09/19 12:25:56;;;;;;;7.70;4.00;;;;;;;35.99;19.78;100887.05;106185;1262;61346;-89
2023/09/19 12:28:26;;;;;;;6.00;3.90;;;;;;;36.11;19.82;100889.61;106096;1257;64973;-89
2023/09/19 12:30:57;;;;;;;6.50;3.90;;;;;;;36.37;19.83;100886.33;106150;1259;61363;-89
2023/09/19 12:33:26;;;;;;;5.40;4.10;;;;;;;36.47;19.72;100881.81;106087;1259;61233;-87
2023/09/19 12:35:54;;;;;;;6.10;3.90;;;;;;;36.62;19.50;100875.73;106169;1258;67012;-88
2023/09/19 12:38:25;;;;;;;6.00;3.60;;;;;;;36.63;19.38;100865.51;106207;1262;61276;-87
2023/09/19 12:40:52;;;;;;;6.40;4.00;;;;;;;36.59;19.57;100860.87;106074;1259;64098;-87
2023/09/19 12:43:19;;;;;;;7.90;3.80;;;;;;;36.57;19.34;100861.00;106008;1257;61270;-87
2023/09/19 12:45:48;;;;;;;8.40;4.20;;;;;;;36.58;19.19;100858.20;106156;1258;61197;-90
2023/09/19 12:48:29;;;;;;;5.10;3.80;;;;;;;36.59;19.20;100859.08;106386;1256;66167;-90
2023/09/19 12:51:16;;;;;;;9.00;3.80;;;;;;;36.57;18.89;100859.61;106112;1259;61129;-88
2023/09/19 12:53:46;;;;;;;7.90;4.10;;;;;;;36.56;18.67;100853.22;106118;1257;65111;-87
2023/09/19 12:56:14;;;;;;;5.70;3.80;;;;;;;36.35;18.85;100849.46;106130;1257;61158;-87
2023/09/19 12:58:58;;;;;;;6.30;3.90;;;;;;;36.22;18.92;100844.54;106170;1257;61265;-86
2023/09/19 13:01:27;;;;;;;8.50;4.10;;;;;;;35.90;19.17;100848.60;106107;1257;65916;-88
2023/09/19 13:04:32;;;;;;;5.80;3.80;;;;;;;35.74;19.11;100846.82;106163;1258;60631;-86
2023/09/19 13:07:00;;;;;;;7.30;3.70;;;;;;;35.70;19.25;100842.69;106071;1260;63818;-88